LPFR Airport Information

Runway Information
Runway 10 Length 8169 ft width 148 ft
Elevation 24 ft Threshold 148 ft Heading 100
Runway 28 Length 8169 ft Width 148 ft
Elevation 18 ft Threshold 148 ft Heading 280
Airport Frequencies
Type APP Name APP Frequency 119.4 MHZ
Type ATIS Name ATIS Frequency 124.2 MHZ
Type GND Name GND Frequency 118.575 MHZ
Type TWR Name TWR Frequency 118.2 MHZ
Airport Navaids
Type NDB Name Faro Frequency 332 KHZ
Type VOR-DME Name Faro Frequency 112800 KHZ
Airport Weather Information & NOTAM
ADDS - METARS form results

(2050 UTC 22 February 2018)
 
METAR text: LPFR 222030Z 34005KT CAVOK 12/07 Q1007
Conditions at: LPFR (FARO , PT) observed 2030 UTC 22 February 2018
Temperature: 12.0°C (54°F)
Dewpoint: 7.0°C (45°F) [RH = 71%]
Pressure (altimeter): 29.73 inches Hg (1007.0 mb)
Winds: from the NNW (340 degrees) at 6 MPH (5 knots; 2.6 m/s)
Visibility: 6 or more miles (10+ km)
Ceiling: ceiling and visibility are OK
Clouds: unknown
Weather: no significant weather observed at this time

METAR text: LPFR 222000Z 34004KT CAVOK 12/08 Q1007
Conditions at: LPFR (FARO , PT) observed 2000 UTC 22 February 2018
Temperature: 12.0°C (54°F)
Dewpoint: 8.0°C (46°F) [RH = 76%]
Pressure (altimeter): 29.73 inches Hg (1007.0 mb)
Winds: from the NNW (340 degrees) at 5 MPH (4 knots; 2.1 m/s)
Visibility: 6 or more miles (10+ km)
Ceiling: ceiling and visibility are OK
Clouds: unknown
Weather: no significant weather observed at this time